createdAt,value
2023-09-23T00:01:38.304Z,6.37
2023-09-23T00:04:06.779Z,6.90
2023-09-23T00:06:36.356Z,7.80
2023-09-23T00:09:05.145Z,7.77
2023-09-23T00:11:33.448Z,6.87
2023-09-23T00:14:02.226Z,7.53
2023-09-23T00:16:29.967Z,7.63
2023-09-23T00:19:00.092Z,6.40
2023-09-23T00:21:27.895Z,8.23
2023-09-23T00:23:58.397Z,7.37
2023-09-23T00:26:27.569Z,7.40
2023-09-23T00:28:55.414Z,8.57
2023-09-23T00:31:25.140Z,8.20
2023-09-23T00:33:53.502Z,8.37
2023-09-23T00:36:23.374Z,7.50
2023-09-23T00:38:51.938Z,6.63
2023-09-23T00:41:21.194Z,6.67
2023-09-23T00:43:49.859Z,7.57
2023-09-23T00:46:22.654Z,7.00
2023-09-23T00:48:52.426Z,6.47
2023-09-23T00:51:22.388Z,5.50
2023-09-23T00:53:51.725Z,6.47
2023-09-23T00:56:22.280Z,5.60
2023-09-23T00:58:51.764Z,5.60
2023-09-23T01:01:19.562Z,6.03
2023-09-23T01:03:49.814Z,6.70
2023-09-23T01:06:18.358Z,6.33
2023-09-23T01:08:48.414Z,4.53
2023-09-23T01:11:18.884Z,6.37
2023-09-23T01:13:52.084Z,4.70
2023-09-23T01:16:22.895Z,4.73
2023-09-23T01:18:51.263Z,4.30
2023-09-23T01:21:19.671Z,4.00
2023-09-23T01:23:49.168Z,3.93
2023-09-23T01:26:17.586Z,3.53
2023-09-23T01:28:46.839Z,3.50
2023-09-23T01:31:14.930Z,3.33
2023-09-23T01:33:43.143Z,3.07
2023-09-23T01:36:12.821Z,2.90
2023-09-23T01:38:42.478Z,2.80
2023-09-23T01:41:11.657Z,2.40
2023-09-23T01:43:39.406Z,2.50
2023-09-23T01:46:08.006Z,2.60
2023-09-23T01:48:35.843Z,2.60
2023-09-23T01:51:05.309Z,2.50
2023-09-23T01:53:33.191Z,3.70
2023-09-23T01:56:01.171Z,3.30
2023-09-23T01:58:30.279Z,4.10
2023-09-23T02:00:59.325Z,3.20
2023-09-23T02:03:28.792Z,4.70
2023-09-23T02:05:56.898Z,5.07
2023-09-23T02:08:24.620Z,5.20
2023-09-23T02:10:53.189Z,5.67
2023-09-23T02:13:22.039Z,5.73
2023-09-23T02:15:52.517Z,5.33
2023-09-23T02:18:20.245Z,6.63
2023-09-23T02:20:49.326Z,6.90
2023-09-23T02:23:18.581Z,7.23
2023-09-23T02:25:47.191Z,7.07
2023-09-23T02:28:14.949Z,6.20
2023-09-23T02:30:43.820Z,6.97
2023-09-23T02:33:13.466Z,9.07
2023-09-23T02:35:41.237Z,8.30
2023-09-23T02:38:11.371Z,9.47
2023-09-23T02:40:42.185Z,8.77
2023-09-23T02:43:10.010Z,7.80
2023-09-23T02:45:37.737Z,7.70
2023-09-23T02:48:06.197Z,7.80
2023-09-23T02:50:38.112Z,6.53
2023-09-23T02:53:06.024Z,5.20
2023-09-23T02:55:33.798Z,5.87
2023-09-23T02:58:02.162Z,5.80
2023-09-23T03:00:31.578Z,6.00
2023-09-23T03:03:03.132Z,4.90
2023-09-23T03:05:32.804Z,6.47
2023-09-23T03:08:03.058Z,6.33
2023-09-23T03:10:40.331Z,6.97
2023-09-23T03:13:08.978Z,4.90
2023-09-23T03:15:40.712Z,6.00
2023-09-23T03:18:08.812Z,6.50
2023-09-23T03:20:37.761Z,7.03
2023-09-23T03:23:10.501Z,4.70
2023-09-23T03:25:47.285Z,5.83
2023-09-23T03:28:17.198Z,5.53
2023-09-23T03:30:49.233Z,5.20
2023-09-23T03:33:20.413Z,5.30
2023-09-23T03:35:50.490Z,4.60
2023-09-23T03:38:19.698Z,5.30
2023-09-23T03:40:54.408Z,4.40
2023-09-23T03:43:23.536Z,5.50
2023-09-23T03:45:52.625Z,5.27
2023-09-23T03:48:20.899Z,4.80
2023-09-23T03:50:52.558Z,4.40
2023-09-23T03:53:23.143Z,4.80
2023-09-23T03:55:53.388Z,5.23
2023-09-23T03:58:21.258Z,5.93
2023-09-23T04:00:50.387Z,3.87
2023-09-23T04:03:19.191Z,4.50
2023-09-23T04:05:55.129Z,4.73
2023-09-23T04:08:24.302Z,4.23
2023-09-23T04:10:52.284Z,4.80
2023-09-23T04:13:20.173Z,3.57
2023-09-23T04:15:47.986Z,4.07
2023-09-23T04:18:15.719Z,4.13
2023-09-23T04:20:45.150Z,3.93
2023-09-23T04:23:13.070Z,5.50
2023-09-23T04:25:43.373Z,3.37
2023-09-23T04:28:11.274Z,3.73
2023-09-23T04:30:39.454Z,3.87
2023-09-23T04:33:07.677Z,3.10
2023-09-23T04:35:35.884Z,3.17
2023-09-23T04:38:04.027Z,3.30
2023-09-23T04:40:31.918Z,3.97
2023-09-23T04:43:01.365Z,3.00
2023-09-23T04:45:29.171Z,2.80
2023-09-23T04:47:57.366Z,3.20
2023-09-23T04:50:26.157Z,3.30
2023-09-23T04:52:53.975Z,3.00
2023-09-23T04:55:21.668Z,3.10
2023-09-23T04:57:49.395Z,3.17
2023-09-23T05:00:19.933Z,3.20
2023-09-23T05:02:49.267Z,3.30
2023-09-23T05:05:17.593Z,3.27
2023-09-23T05:07:45.429Z,3.07
2023-09-23T05:10:13.980Z,3.50
2023-09-23T05:12:46.031Z,3.23
2023-09-23T05:15:17.007Z,3.73
2023-09-23T05:17:46.633Z,3.90
2023-09-23T05:20:15.901Z,4.10
2023-09-23T05:22:44.370Z,3.90
2023-09-23T05:25:14.548Z,4.20
2023-09-23T05:27:44.480Z,4.20
2023-09-23T05:30:16.041Z,4.33
2023-09-23T05:32:45.435Z,4.30
2023-09-23T05:35:15.248Z,4.63
2023-09-23T05:37:44.416Z,3.63
2023-09-23T05:40:24.932Z,4.13
2023-09-23T05:42:53.831Z,4.00
2023-09-23T05:45:24.536Z,4.60
2023-09-23T05:47:53.830Z,4.00
2023-09-23T05:50:23.497Z,4.40
2023-09-23T05:52:53.554Z,4.87
2023-09-23T05:55:22.515Z,5.40
2023-09-23T05:57:51.570Z,4.53
2023-09-23T06:00:20.997Z,5.17
2023-09-23T06:02:49.779Z,4.87
2023-09-23T06:05:18.031Z,4.87
2023-09-23T06:07:47.221Z,4.60
2023-09-23T06:10:16.299Z,4.93
2023-09-23T06:12:44.104Z,4.80
2023-09-23T06:15:12.182Z,4.37
2023-09-23T06:17:40.217Z,4.27
2023-09-23T06:20:10.033Z,4.10
2023-09-23T06:22:37.965Z,3.60
2023-09-23T06:25:08.207Z,4.00
2023-09-23T06:27:37.396Z,4.20
2023-09-23T06:30:06.700Z,4.83
2023-09-23T06:32:35.207Z,4.00
2023-09-23T06:35:03.775Z,4.40
2023-09-23T06:37:32.434Z,4.43
2023-09-23T06:40:00.856Z,3.80
2023-09-23T06:42:30.226Z,3.87
2023-09-23T06:45:00.312Z,4.00
2023-09-23T06:47:29.694Z,3.83
2023-09-23T06:49:58.553Z,3.80
2023-09-23T06:52:26.696Z,3.43
2023-09-23T06:54:55.239Z,3.27
2023-09-23T06:57:23.955Z,3.10
2023-09-23T06:59:54.917Z,2.73
2023-09-23T07:02:24.527Z,2.70
2023-09-23T07:04:52.766Z,3.20
2023-09-23T07:07:46.133Z,3.00
2023-09-23T07:10:14.136Z,3.27
2023-09-23T07:12:42.105Z,3.20
2023-09-23T07:16:22.931Z,3.10
2023-09-23T07:18:51.581Z,3.60
2023-09-23T07:21:19.404Z,3.10
2023-09-23T07:23:47.489Z,3.80
2023-09-23T07:26:21.460Z,3.63
2023-09-23T07:28:51.386Z,3.17
2023-09-23T07:31:20.986Z,3.73
2023-09-23T07:33:49.005Z,3.30
2023-09-23T07:36:17.227Z,3.37
2023-09-23T07:43:41.660Z,3.53
2023-09-23T07:46:38.094Z,3.00
2023-09-23T07:49:11.740Z,3.07
2023-09-23T07:51:51.211Z,3.47
2023-09-23T07:54:30.500Z,3.67
2023-09-23T07:56:58.591Z,2.87
2023-09-23T07:59:52.301Z,3.40
2023-09-23T08:03:10.385Z,3.60
2023-09-23T08:06:28.033Z,3.87
2023-09-23T08:09:46.985Z,3.43
2023-09-23T08:12:16.550Z,3.27
2023-09-23T08:14:44.471Z,3.53
2023-09-23T08:17:18.100Z,4.90
2023-09-23T08:19:46.721Z,3.80
2023-09-23T08:22:15.004Z,3.27
2023-09-23T08:24:46.346Z,3.73
2023-09-23T08:27:14.367Z,3.50
2023-09-23T08:29:43.665Z,4.00
2023-09-23T08:32:11.586Z,4.13
2023-09-23T08:34:39.596Z,3.90
2023-09-23T08:37:07.605Z,2.90
2023-09-23T08:39:35.494Z,3.57
2023-09-23T08:42:05.865Z,4.40
2023-09-23T08:44:34.917Z,3.60
2023-09-23T08:47:04.797Z,3.30
2023-09-23T08:49:33.636Z,3.50
2023-09-23T08:52:03.712Z,3.63
2023-09-23T08:54:32.759Z,3.40
2023-09-23T08:57:02.487Z,3.00
2023-09-23T08:59:32.330Z,3.27
2023-09-23T09:02:00.873Z,3.13
2023-09-23T09:04:30.150Z,3.30
2023-09-23T09:06:58.651Z,2.60
2023-09-23T09:09:26.848Z,2.73
2023-09-23T09:11:56.285Z,2.37
2023-09-23T09:14:24.696Z,2.63
2023-09-23T09:16:52.762Z,2.40
2023-09-23T09:19:21.098Z,2.10
2023-09-23T09:21:51.258Z,2.10
2023-09-23T09:24:19.247Z,2.07
2023-09-23T09:26:48.385Z,2.50
2023-09-23T09:29:17.534Z,2.23
2023-09-23T09:31:49.991Z,3.40
2023-09-23T09:34:25.525Z,2.70
2023-09-23T09:36:57.091Z,1.90
2023-09-23T09:39:30.820Z,1.67
2023-09-23T09:42:00.577Z,1.90
2023-09-23T09:44:29.961Z,2.40
2023-09-23T09:46:58.277Z,2.00
2023-09-23T09:49:26.779Z,2.27
2023-09-23T09:51:56.421Z,2.00
2023-09-23T09:54:30.103Z,2.00
2023-09-23T09:57:00.197Z,1.90
2023-09-23T09:59:30.768Z,2.07
2023-09-23T10:02:00.153Z,2.20
2023-09-23T10:04:32.873Z,1.90
2023-09-23T10:07:03.044Z,1.83
2023-09-23T10:09:32.283Z,1.93
2023-09-23T10:12:00.868Z,1.90
2023-09-23T10:14:28.899Z,1.80
2023-09-23T10:17:01.385Z,1.73
2023-09-23T10:19:33.539Z,1.87
2023-09-23T10:22:12.335Z,2.23
2023-09-23T10:24:40.190Z,2.30
2023-09-23T10:27:10.977Z,1.83
2023-09-23T10:29:47.112Z,1.90
2023-09-23T10:32:16.038Z,1.93
2023-09-23T10:34:49.156Z,1.43
2023-09-23T10:37:27.792Z,1.30
2023-09-23T10:39:55.864Z,2.00
2023-09-23T10:42:23.783Z,2.57
2023-09-23T10:44:52.779Z,2.23
2023-09-23T10:47:21.342Z,1.77
2023-09-23T10:49:49.278Z,1.80
2023-09-23T10:52:17.564Z,1.30
2023-09-23T10:54:49.329Z,1.70
2023-09-23T10:57:17.168Z,1.97
2023-09-23T10:59:45.413Z,2.00
2023-09-23T11:02:13.431Z,1.63
2023-09-23T11:04:41.256Z,2.30
2023-09-23T11:07:09.015Z,1.50
2023-09-23T11:09:37.765Z,1.80
2023-09-23T11:12:12.196Z,1.50
2023-09-23T11:14:39.977Z,1.50
2023-09-23T11:17:07.906Z,2.07
2023-09-23T11:19:35.726Z,1.70
2023-09-23T11:22:04.553Z,2.00
2023-09-23T11:24:39.793Z,1.90
2023-09-23T11:27:10.043Z,1.73
2023-09-23T11:29:37.910Z,2.37
2023-09-23T11:32:06.927Z,1.63
2023-09-23T11:34:35.598Z,1.67
2023-09-23T11:37:03.415Z,2.87
2023-09-23T11:39:37.559Z,1.70
2023-09-23T11:42:06.240Z,1.60
2023-09-23T11:44:35.706Z,1.50
2023-09-23T11:47:03.806Z,1.40
2023-09-23T11:49:32.805Z,1.37
2023-09-23T11:52:00.938Z,1.93
2023-09-23T11:54:29.793Z,1.80
2023-09-23T11:56:57.909Z,1.30
2023-09-23T11:59:25.924Z,1.60
2023-09-23T12:01:55.267Z,1.50
2023-09-23T12:04:23.146Z,1.33
2023-09-23T12:06:51.314Z,1.60
2023-09-23T12:09:19.282Z,1.53
2023-09-23T12:11:47.505Z,1.43
2023-09-23T12:14:16.302Z,1.23
2023-09-23T12:16:45.178Z,1.10
2023-09-23T12:19:14.869Z,1.50
2023-09-23T12:21:43.749Z,1.00
2023-09-23T12:24:11.879Z,1.37
2023-09-23T12:26:39.894Z,1.30
2023-09-23T12:29:07.912Z,1.40
2023-09-23T12:31:35.908Z,1.43
2023-09-23T12:34:04.708Z,2.17
2023-09-23T12:36:34.754Z,1.20
2023-09-23T12:39:03.741Z,1.63
2023-09-23T12:41:32.160Z,1.10
2023-09-23T12:44:00.229Z,1.50
2023-09-23T12:46:28.384Z,1.43
2023-09-23T12:48:56.277Z,1.03
2023-09-23T12:51:24.184Z,1.30
2023-09-23T12:53:53.345Z,1.30
2023-09-23T12:56:22.841Z,1.67
2023-09-23T12:58:50.902Z,1.10
2023-09-23T13:01:18.794Z,1.10
2023-09-23T13:03:46.858Z,1.40
2023-09-23T13:06:14.981Z,1.80
2023-09-23T13:08:44.913Z,1.20
2023-09-23T13:11:15.391Z,1.17
2023-09-23T13:13:50.753Z,1.33
2023-09-23T13:16:19.522Z,1.43
2023-09-23T13:18:47.661Z,1.40
2023-09-23T13:21:15.618Z,1.57
2023-09-23T13:23:43.546Z,1.50
2023-09-23T13:26:13.865Z,1.50
2023-09-23T13:28:43.448Z,1.37
2023-09-23T13:31:11.963Z,1.50
2023-09-23T13:33:39.919Z,1.27
2023-09-23T13:36:08.080Z,1.70
2023-09-23T13:38:35.994Z,1.40
2023-09-23T13:41:06.320Z,1.30
2023-09-23T13:43:35.314Z,1.23
2023-09-23T13:46:04.771Z,1.70
2023-09-23T13:48:33.198Z,1.43
2023-09-23T13:51:01.652Z,1.50
2023-09-23T13:53:29.579Z,1.57
2023-09-23T13:55:57.633Z,1.33
2023-09-23T13:58:25.523Z,1.90
2023-09-23T14:00:53.547Z,2.57
2023-09-23T14:03:22.809Z,2.10
2023-09-23T14:05:51.490Z,1.80
2023-09-23T14:08:19.322Z,2.67
2023-09-23T14:10:47.343Z,1.83
2023-09-23T14:13:15.540Z,1.43
2023-09-23T14:15:43.376Z,1.50
2023-09-23T14:18:11.253Z,1.60
2023-09-23T14:20:43.821Z,2.23
2023-09-23T14:23:11.788Z,1.57
2023-09-23T14:25:39.651Z,1.80
2023-09-23T14:28:07.595Z,1.37
2023-09-23T14:30:36.821Z,1.70
2023-09-23T14:33:06.864Z,1.60
2023-09-23T14:35:35.209Z,1.77
2023-09-23T14:38:04.627Z,1.47
2023-09-23T14:40:33.117Z,2.40
2023-09-23T14:43:01.177Z,2.43
2023-09-23T14:45:29.005Z,1.47
2023-09-23T14:47:58.014Z,1.53
2023-09-23T14:50:26.741Z,1.30
2023-09-23T14:52:57.906Z,1.80
2023-09-23T14:55:27.182Z,1.53
2023-09-23T14:57:56.268Z,1.77
2023-09-23T15:00:24.813Z,1.30
2023-09-23T15:02:52.966Z,1.70
2023-09-23T15:05:21.903Z,1.50
2023-09-23T15:07:49.929Z,1.70
2023-09-23T15:10:18.056Z,1.83
2023-09-23T15:12:48.644Z,1.67
2023-09-23T15:15:16.742Z,1.70
2023-09-23T15:17:44.799Z,1.87
2023-09-23T15:20:13.681Z,1.80
2023-09-23T15:22:41.794Z,1.63
2023-09-23T15:25:10.763Z,1.70
2023-09-23T15:27:38.927Z,1.47
2023-09-23T15:30:10.214Z,1.97
2023-09-23T15:32:38.681Z,1.83
2023-09-23T15:35:09.050Z,1.70
2023-09-23T15:37:36.979Z,1.87
2023-09-23T15:40:11.289Z,1.30
2023-09-23T15:42:39.516Z,1.37
2023-09-23T15:45:13.230Z,2.00
2023-09-23T15:47:41.637Z,1.70
2023-09-23T15:50:11.185Z,1.70
2023-09-23T15:52:40.837Z,1.60
2023-09-23T15:55:08.993Z,1.47
2023-09-23T15:57:37.496Z,1.07
2023-09-23T16:00:06.613Z,1.97
2023-09-23T16:02:36.345Z,1.33
2023-09-23T16:05:05.125Z,1.70
2023-09-23T16:07:33.180Z,1.47
2023-09-23T16:10:01.080Z,1.80
2023-09-23T16:12:28.910Z,1.50
2023-09-23T16:14:57.564Z,1.77
2023-09-23T16:17:25.624Z,1.23
2023-09-23T16:19:54.886Z,2.00
2023-09-23T16:22:22.675Z,1.43
2023-09-23T16:24:50.757Z,1.40
2023-09-23T16:27:19.738Z,1.33
2023-09-23T16:29:47.941Z,1.30
2023-09-23T16:32:16.163Z,1.83
2023-09-23T16:34:44.302Z,2.23
2023-09-23T16:37:13.368Z,1.30
2023-09-23T16:39:41.349Z,1.33
2023-09-23T16:42:09.080Z,2.07
2023-09-23T16:44:37.230Z,1.60
2023-09-23T16:47:05.160Z,1.20
2023-09-23T16:49:32.998Z,1.60
2023-09-23T16:52:00.804Z,1.30
2023-09-23T16:54:30.164Z,1.70
2023-09-23T16:56:57.949Z,1.43
2023-09-23T16:59:25.862Z,1.20
2023-09-23T17:01:53.897Z,1.40
2023-09-23T17:04:21.610Z,1.80
2023-09-23T17:06:49.270Z,1.10
2023-09-23T17:09:17.966Z,1.30
2023-09-23T17:11:47.094Z,1.60
2023-09-23T17:14:14.880Z,1.80
2023-09-23T17:16:42.638Z,1.87
2023-09-23T17:19:10.370Z,2.10
2023-09-23T17:21:38.652Z,1.80
2023-09-23T17:24:06.665Z,1.60
2023-09-23T17:26:34.378Z,1.70
2023-09-23T17:29:07.438Z,2.77
2023-09-23T17:31:35.394Z,2.73
2023-09-23T17:34:04.176Z,1.90
2023-09-23T17:36:31.997Z,2.00
2023-09-23T17:39:00.310Z,2.27
2023-09-23T17:46:07.881Z,2.40
2023-09-23T17:48:35.868Z,1.60
2023-09-23T17:51:03.682Z,2.20
2023-09-23T17:53:32.627Z,2.60
2023-09-23T17:56:01.110Z,2.53
2023-09-23T17:58:29.645Z,2.70
2023-09-23T18:00:58.122Z,1.60
2023-09-23T18:03:29.789Z,1.70
2023-09-23T18:05:59.802Z,2.30
2023-09-23T18:08:28.119Z,2.17
2023-09-23T18:10:55.879Z,3.93
2023-09-23T18:13:23.661Z,2.07
2023-09-23T18:15:51.712Z,2.00
2023-09-23T18:18:19.569Z,1.87
2023-09-23T18:20:48.621Z,2.00
2023-09-23T18:23:16.405Z,2.10
2023-09-23T18:25:44.124Z,1.90
2023-09-23T18:28:11.847Z,1.80
2023-09-23T18:30:40.171Z,2.00
2023-09-23T18:33:08.358Z,2.33
2023-09-23T18:35:37.271Z,1.73
2023-09-23T18:38:06.617Z,1.80
2023-09-23T18:40:34.352Z,1.67
2023-09-23T18:43:02.132Z,2.00
2023-09-23T18:45:30.030Z,2.30
2023-09-23T18:48:12.719Z,1.93
2023-09-23T18:50:47.743Z,2.10
2023-09-23T18:53:17.260Z,2.20
2023-09-23T18:55:45.694Z,2.10
2023-09-23T18:58:13.507Z,2.13
2023-09-23T19:00:41.603Z,1.70
2023-09-23T19:03:09.404Z,2.07
2023-09-23T19:05:39.000Z,2.20
2023-09-23T19:08:07.558Z,1.70
2023-09-23T19:10:36.639Z,1.83
2023-09-23T19:13:04.387Z,1.90
2023-09-23T19:15:31.116Z,1.97
2023-09-23T19:17:59.062Z,1.67
2023-09-23T19:20:27.230Z,2.03
2023-09-23T19:22:55.351Z,1.77
2023-09-23T19:25:23.875Z,3.00
2023-09-23T19:27:52.951Z,2.23
2023-09-23T19:30:20.700Z,2.30
2023-09-23T19:32:48.782Z,2.23
2023-09-23T19:35:16.704Z,2.57
2023-09-23T19:37:44.368Z,2.43
2023-09-23T19:40:13.089Z,1.80
2023-09-23T19:42:40.748Z,2.03
2023-09-23T19:45:12.312Z,2.30
2023-09-23T19:47:40.230Z,2.33
2023-09-23T19:50:08.643Z,3.03
2023-09-23T19:52:37.496Z,2.50
2023-09-23T19:55:06.002Z,2.67
2023-09-23T19:57:34.156Z,2.83
2023-09-23T20:00:02.537Z,3.73
2023-09-23T20:02:41.808Z,2.53
2023-09-23T20:05:11.643Z,2.60
2023-09-23T20:07:39.469Z,2.57
2023-09-23T20:10:09.416Z,3.30
2023-09-23T20:16:54.316Z,2.70
2023-09-23T20:19:23.324Z,2.70
2023-09-23T20:21:51.756Z,2.00
2023-09-23T20:24:19.682Z,3.00
2023-09-23T20:31:19.624Z,2.63
2023-09-23T20:33:47.771Z,3.00
2023-09-23T20:36:16.892Z,2.90
2023-09-23T20:38:44.689Z,3.13
2023-09-23T20:41:12.616Z,2.90
2023-09-23T20:43:40.420Z,2.80
2023-09-23T20:46:12.248Z,3.23
2023-09-23T20:48:40.207Z,2.83
2023-09-23T20:51:10.191Z,3.03
2023-09-23T20:53:39.749Z,3.20
2023-09-23T20:56:09.535Z,2.90
2023-09-23T20:58:37.649Z,3.13
2023-09-23T21:01:05.375Z,3.40
2023-09-23T21:03:33.215Z,2.87
2023-09-23T21:06:00.968Z,3.10
2023-09-23T21:08:28.811Z,3.27
2023-09-23T21:10:57.899Z,3.57
2023-09-23T21:13:25.575Z,3.03
2023-09-23T21:15:59.881Z,3.53
2023-09-23T21:18:27.728Z,3.07
2023-09-23T21:20:55.570Z,3.40
2023-09-23T21:23:23.907Z,2.90
2023-09-23T21:25:53.303Z,3.97
2023-09-23T21:28:22.538Z,3.33
2023-09-23T21:30:50.551Z,3.00
2023-09-23T21:33:18.346Z,3.10
2023-09-23T21:35:47.728Z,4.17
2023-09-23T21:38:15.456Z,3.30
2023-09-23T21:40:43.952Z,3.33
2023-09-23T21:43:11.853Z,3.80
2023-09-23T21:45:41.272Z,4.13
2023-09-23T21:48:09.421Z,3.80
2023-09-23T21:50:37.453Z,3.50
2023-09-23T21:53:06.499Z,3.20
2023-09-23T21:55:34.290Z,3.60
2023-09-23T21:58:03.012Z,4.60
2023-09-23T22:00:31.890Z,4.30
2023-09-23T22:03:02.759Z,5.27
2023-09-23T22:05:31.768Z,4.30
2023-09-23T22:08:01.213Z,4.13
2023-09-23T22:10:29.491Z,3.17
2023-09-23T22:12:57.894Z,4.30
2023-09-23T22:15:26.814Z,4.10
2023-09-23T22:17:55.250Z,5.03
2023-09-23T22:20:27.808Z,3.90
2023-09-23T22:22:55.848Z,3.30
2023-09-23T22:25:24.530Z,5.00
2023-09-23T22:27:53.674Z,4.27
2023-09-23T22:30:25.292Z,4.30
2023-09-23T22:32:55.273Z,4.47
2023-09-23T22:35:26.840Z,3.93
2023-09-23T22:37:55.209Z,4.40
2023-09-23T22:40:23.543Z,4.77
2023-09-23T22:42:51.889Z,4.30
2023-09-23T22:45:32.044Z,4.77
2023-09-23T22:48:07.789Z,4.40
2023-09-23T22:50:37.341Z,4.63
2023-09-23T22:53:06.222Z,3.97
2023-09-23T22:55:34.783Z,3.97
2023-09-23T22:58:02.868Z,4.13
2023-09-23T23:00:33.407Z,5.27
2023-09-23T23:03:01.610Z,4.43
2023-09-23T23:05:29.843Z,4.50
2023-09-23T23:07:59.107Z,4.37
2023-09-23T23:10:26.878Z,4.47
2023-09-23T23:12:54.679Z,5.77
2023-09-23T23:15:22.617Z,4.90
2023-09-23T23:17:51.764Z,4.80
2023-09-23T23:20:24.358Z,4.87
2023-09-23T23:22:53.047Z,5.60
2023-09-23T23:25:22.940Z,5.60
2023-09-23T23:27:50.797Z,4.50
2023-09-23T23:30:20.304Z,5.50
2023-09-23T23:32:49.008Z,5.00
2023-09-23T23:35:20.966Z,5.60
2023-09-23T23:37:48.691Z,6.03
2023-09-23T23:40:17.446Z,5.53
2023-09-23T23:42:46.608Z,5.70
2023-09-23T23:45:14.324Z,5.77
2023-09-23T23:47:42.335Z,4.77
2023-09-23T23:50:10.589Z,5.50
2023-09-23T23:52:38.320Z,5.30
2023-09-23T23:55:06.713Z,4.17
2023-09-23T23:57:34.859Z,5.00
